sensor_id;sensor_type;location;lat;lon;timestamp;pressure;altitude;pressure_sealevel;temperature;humidity
53546;BME280;39432;51.902;10.844;2023-08-20T00:02:08;100094.28;;;23.24;100.00
53546;BME280;39432;51.902;10.844;2023-08-20T00:05:00;100101.81;;;23.32;100.00
53546;BME280;39432;51.902;10.844;2023-08-20T00:07:51;100099.97;;;23.45;100.00
53546;BME280;39432;51.902;10.844;2023-08-20T00:10:42;100092.38;;;23.54;100.00
53546;BME280;39432;51.902;10.844;2023-08-20T00:13:32;100079.91;;;23.69;100.00
53546;BME280;39432;51.902;10.844;2023-08-20T00:16:26;100078.44;;;23.63;100.00
53546;BME280;39432;51.902;10.844;2023-08-20T00:19:17;100087.78;;;23.58;100.00
53546;BME280;39432;51.902;10.844;2023-08-20T00:22:07;100102.63;;;23.33;100.00
53546;BME280;39432;51.902;10.844;2023-08-20T00:24:58;100118.84;;;23.57;100.00
53546;BME280;39432;51.902;10.844;2023-08-20T00:27:50;100122.59;;;23.61;100.00
53546;BME280;39432;51.902;10.844;2023-08-20T00:30:40;100129.03;;;23.70;100.00
53546;BME280;39432;51.902;10.844;2023-08-20T00:33:34;100136.59;;;23.61;100.00
53546;BME280;39432;51.902;10.844;2023-08-20T00:36:25;100135.16;;;23.63;100.00
53546;BME280;39432;51.902;10.844;2023-08-20T00:39:15;100147.63;;;23.40;100.00
53546;BME280;39432;51.902;10.844;2023-08-20T00:42:06;100149.75;;;23.34;100.00
53546;BME280;39432;51.902;10.844;2023-08-20T00:44:56;100168.00;;;23.32;100.00
53546;BME280;39432;51.902;10.844;2023-08-20T00:47:47;100175.91;;;23.30;100.00
53546;BME280;39432;51.902;10.844;2023-08-20T00:50:41;100189.53;;;23.14;100.00
53546;BME280;39432;51.902;10.844;2023-08-20T00:53:31;100210.69;;;22.98;100.00
53546;BME280;39432;51.902;10.844;2023-08-20T00:56:21;100225.63;;;22.93;100.00
53546;BME280;39432;51.902;10.844;2023-08-20T00:59:12;100234.53;;;23.04;100.00
53546;BME280;39432;51.902;10.844;2023-08-20T01:02:02;100233.69;;;23.12;100.00
53546;BME280;39432;51.902;10.844;2023-08-20T01:04:53;100236.13;;;22.87;100.00
53546;BME280;39432;51.902;10.844;2023-08-20T01:08:02;100238.78;;;22.93;100.00
53546;BME280;39432;51.902;10.844;2023-08-20T01:10:59;100239.09;;;23.00;100.00
53546;BME280;39432;51.902;10.844;2023-08-20T01:13:54;100239.91;;;23.00;100.00
53546;BME280;39432;51.902;10.844;2023-08-20T01:16:45;100247.34;;;23.22;100.00
53546;BME280;39432;51.902;10.844;2023-08-20T01:19:36;100231.91;;;23.16;100.00
53546;BME280;39432;51.902;10.844;2023-08-20T01:22:45;100216.13;;;23.03;100.00
53546;BME280;39432;51.902;10.844;2023-08-20T01:26:00;100216.78;;;23.17;100.00
53546;BME280;39432;51.902;10.844;2023-08-20T01:28:59;100201.66;;;23.01;100.00
53546;BME280;39432;51.902;10.844;2023-08-20T01:31:50;100219.41;;;23.05;100.00
53546;BME280;39432;51.902;10.844;2023-08-20T01:34:41;100219.00;;;22.80;100.00
53546;BME280;39432;51.902;10.844;2023-08-20T01:37:32;100218.00;;;22.76;100.00
53546;BME280;39432;51.902;10.844;2023-08-20T01:40:24;100225.56;;;22.84;100.00
53546;BME280;39432;51.902;10.844;2023-08-20T01:43:14;100229.78;;;22.65;100.00
53546;BME280;39432;51.902;10.844;2023-08-20T01:46:07;100239.66;;;22.79;100.00
53546;BME280;39432;51.902;10.844;2023-08-20T01:49:00;100243.06;;;22.99;100.00
53546;BME280;39432;51.902;10.844;2023-08-20T01:51:50;100231.44;;;22.74;100.00
53546;BME280;39432;51.902;10.844;2023-08-20T01:54:40;100242.75;;;22.60;100.00
53546;BME280;39432;51.902;10.844;2023-08-20T01:57:31;100253.63;;;22.79;100.00
53546;BME280;39432;51.902;10.844;2023-08-20T02:00:22;100260.19;;;22.75;100.00
53546;BME280;39432;51.902;10.844;2023-08-20T02:03:15;100271.47;;;22.61;100.00
53546;BME280;39432;51.902;10.844;2023-08-20T02:06:05;100272.31;;;22.70;100.00
53546;BME280;39432;51.902;10.844;2023-08-20T02:08:55;100267.56;;;22.79;100.00
53546;BME280;39432;51.902;10.844;2023-08-20T02:11:46;100266.81;;;22.48;100.00
53546;BME280;39432;51.902;10.844;2023-08-20T02:14:36;100280.78;;;22.56;100.00
53546;BME280;39432;51.902;10.844;2023-08-20T02:17:26;100290.56;;;22.76;100.00
53546;BME280;39432;51.902;10.844;2023-08-20T02:20:19;100299.91;;;22.41;100.00
53546;BME280;39432;51.902;10.844;2023-08-20T02:23:10;100311.16;;;22.58;100.00
53546;BME280;39432;51.902;10.844;2023-08-20T02:26:00;100309.16;;;22.50;100.00
53546;BME280;39432;51.902;10.844;2023-08-20T02:28:50;100306.31;;;22.72;100.00
53546;BME280;39432;51.902;10.844;2023-08-20T02:31:41;100302.47;;;22.59;100.00
53546;BME280;39432;51.902;10.844;2023-08-20T02:34:31;100309.06;;;22.64;100.00
53546;BME280;39432;51.902;10.844;2023-08-20T02:37:24;100317.81;;;22.79;100.00
53546;BME280;39432;51.902;10.844;2023-08-20T02:40:15;100293.94;;;22.96;100.00
53546;BME280;39432;51.902;10.844;2023-08-20T02:43:05;100289.38;;;23.17;100.00
53546;BME280;39432;51.902;10.844;2023-08-20T02:45:56;100266.41;;;23.20;100.00
53546;BME280;39432;51.902;10.844;2023-08-20T02:48:46;100260.59;;;22.91;100.00
53546;BME280;39432;51.902;10.844;2023-08-20T02:51:37;100262.13;;;23.14;100.00
53546;BME280;39432;51.902;10.844;2023-08-20T02:54:31;100251.13;;;23.18;100.00
53546;BME280;39432;51.902;10.844;2023-08-20T02:57:24;100238.69;;;23.41;100.00
53546;BME280;39432;51.902;10.844;2023-08-20T03:00:14;100227.81;;;23.48;100.00
53546;BME280;39432;51.902;10.844;2023-08-20T03:03:05;100223.22;;;23.26;100.00
53546;BME280;39432;51.902;10.844;2023-08-20T03:05:59;100236.69;;;23.67;100.00
53546;BME280;39432;51.902;10.844;2023-08-20T03:08:49;100216.47;;;23.62;100.00
53546;BME280;39432;51.902;10.844;2023-08-20T03:11:44;100200.31;;;24.02;100.00
53546;BME280;39432;51.902;10.844;2023-08-20T03:14:34;100190.19;;;23.80;100.00
53546;BME280;39432;51.902;10.844;2023-08-20T03:17:25;100204.31;;;23.58;100.00
53546;BME280;39432;51.902;10.844;2023-08-20T03:20:15;100210.38;;;23.60;100.00
53546;BME280;39432;51.902;10.844;2023-08-20T03:23:05;100219.09;;;23.84;100.00
53546;BME280;39432;51.902;10.844;2023-08-20T03:25:57;100219.13;;;23.67;100.00
53546;BME280;39432;51.902;10.844;2023-08-20T03:28:50;100207.56;;;23.95;100.00
53546;BME280;39432;51.902;10.844;2023-08-20T03:31:40;100210.75;;;23.41;100.00
53546;BME280;39432;51.902;10.844;2023-08-20T03:34:31;100227.16;;;23.34;100.00
53546;BME280;39432;51.902;10.844;2023-08-20T03:37:22;100238.63;;;22.98;100.00
53546;BME280;39432;51.902;10.844;2023-08-20T03:40:12;100242.75;;;23.09;100.00
53546;BME280;39432;51.902;10.844;2023-08-20T03:43:03;100250.00;;;23.36;100.00
53546;BME280;39432;51.902;10.844;2023-08-20T03:45:56;100241.13;;;23.25;100.00
53546;BME280;39432;51.902;10.844;2023-08-20T03:48:46;100239.91;;;23.00;100.00
53546;BME280;39432;51.902;10.844;2023-08-20T03:51:36;100238.81;;;23.10;100.00
53546;BME280;39432;51.902;10.844;2023-08-20T03:54:28;100225.53;;;23.42;100.00
53546;BME280;39432;51.902;10.844;2023-08-20T03:57:18;100215.00;;;23.30;100.00
53546;BME280;39432;51.902;10.844;2023-08-20T04:00:12;100248.03;;;23.36;100.00
53546;BME280;39432;51.902;10.844;2023-08-20T04:03:05;100231.75;;;23.56;100.00
53546;BME280;39432;51.902;10.844;2023-08-20T04:05:55;100213.03;;;23.82;100.00
53546;BME280;39432;51.902;10.844;2023-08-20T04:08:45;100207.94;;;23.67;100.00
53546;BME280;39432;51.902;10.844;2023-08-20T04:11:37;100196.56;;;23.89;100.00
53546;BME280;39432;51.902;10.844;2023-08-20T04:14:29;100200.06;;;23.69;100.00
53546;BME280;39432;51.902;10.844;2023-08-20T04:17:19;100218.09;;;23.28;100.00
53546;BME280;39432;51.902;10.844;2023-08-20T04:20:14;100227.94;;;23.00;100.00
53546;BME280;39432;51.902;10.844;2023-08-20T04:23:05;100237.50;;;23.16;100.00
53546;BME280;39432;51.902;10.844;2023-08-20T04:25:55;100250.13;;;23.05;100.00
53546;BME280;39432;51.902;10.844;2023-08-20T04:28:45;100270.28;;;23.02;100.00
53546;BME280;39432;51.902;10.844;2023-08-20T04:31:37;100248.16;;;22.97;100.00
53546;BME280;39432;51.902;10.844;2023-08-20T04:34:30;100257.19;;;22.62;100.00
53546;BME280;39432;51.902;10.844;2023-08-20T04:37:23;100278.06;;;22.74;100.00
53546;BME280;39432;51.902;10.844;2023-08-20T04:40:13;100273.47;;;22.69;100.00
53546;BME280;39432;51.902;10.844;2023-08-20T04:43:05;100297.72;;;22.60;100.00
53546;BME280;39432;51.902;10.844;2023-08-20T04:45:58;100282.06;;;22.81;100.00
53546;BME280;39432;51.902;10.844;2023-08-20T04:48:49;100282.63;;;22.61;100.00
53546;BME280;39432;51.902;10.844;2023-08-20T04:51:39;100289.53;;;23.12;100.00
53546;BME280;39432;51.902;10.844;2023-08-20T04:54:32;100280.31;;;22.94;100.00
53546;BME280;39432;51.902;10.844;2023-08-20T04:57:22;100285.31;;;22.83;100.00
53546;BME280;39432;51.902;10.844;2023-08-20T05:00:15;100277.25;;;23.13;100.00
53546;BME280;39432;51.902;10.844;2023-08-20T05:03:12;100278.53;;;23.07;100.00
53546;BME280;39432;51.902;10.844;2023-08-20T05:06:04;100279.47;;;22.94;100.00
53546;BME280;39432;51.902;10.844;2023-08-20T05:08:55;100287.22;;;23.05;100.00
53546;BME280;39432;51.902;10.844;2023-08-20T05:11:48;100287.13;;;23.19;100.00
53546;BME280;39432;51.902;10.844;2023-08-20T05:14:39;100276.41;;;23.12;100.00
53546;BME280;39432;51.902;10.844;2023-08-20T05:30:43;100294.38;;;23.37;100.00
53546;BME280;39432;51.902;10.844;2023-08-20T05:33:33;100291.81;;;22.93;100.00
53546;BME280;39432;51.902;10.844;2023-08-20T05:36:24;100306.00;;;22.82;100.00
53546;BME280;39432;51.902;10.844;2023-08-20T05:39:14;100308.34;;;22.58;100.00
53546;BME280;39432;51.902;10.844;2023-08-20T05:42:04;100326.75;;;22.59;100.00
53546;BME280;39432;51.902;10.844;2023-08-20T05:44:55;100325.56;;;22.82;100.00
53546;BME280;39432;51.902;10.844;2023-08-20T05:47:50;100333.59;;;22.84;100.00
53546;BME280;39432;51.902;10.844;2023-08-20T05:50:41;100327.75;;;22.94;100.00
53546;BME280;39432;51.902;10.844;2023-08-20T05:53:32;100316.31;;;22.73;100.00
53546;BME280;39432;51.902;10.844;2023-08-20T05:56:22;100320.63;;;23.19;100.00
53546;BME280;39432;51.902;10.844;2023-08-20T05:59:12;100291.63;;;22.89;100.00
53546;BME280;39432;51.902;10.844;2023-08-20T06:02:02;100306.69;;;23.36;100.00
53546;BME280;39432;51.902;10.844;2023-08-20T06:04:55;100310.09;;;23.16;100.00
53546;BME280;39432;51.902;10.844;2023-08-20T06:07:45;100323.91;;;22.81;100.00
53546;BME280;39432;51.902;10.844;2023-08-20T06:10:35;100318.09;;;23.00;100.00
53546;BME280;39432;51.902;10.844;2023-08-20T06:13:26;100315.69;;;22.85;100.00
53546;BME280;39432;51.902;10.844;2023-08-20T06:16:16;100320.78;;;23.23;100.00
53546;BME280;39432;51.902;10.844;2023-08-20T06:19:06;100314.00;;;22.98;100.00
53546;BME280;39432;51.902;10.844;2023-08-20T06:21:59;100328.44;;;23.00;100.00
53546;BME280;39432;51.902;10.844;2023-08-20T06:24:50;100335.50;;;22.97;100.00
53546;BME280;39432;51.902;10.844;2023-08-20T06:27:41;100334.75;;;23.14;100.00
53546;BME280;39432;51.902;10.844;2023-08-20T06:30:31;100325.22;;;23.15;100.00
53546;BME280;39432;51.902;10.844;2023-08-20T06:33:22;100325.16;;;22.98;100.00
53546;BME280;39432;51.902;10.844;2023-08-20T06:36:12;100323.31;;;22.93;100.00
53546;BME280;39432;51.902;10.844;2023-08-20T06:39:07;100326.38;;;23.23;100.00
53546;BME280;39432;51.902;10.844;2023-08-20T06:41:57;100323.56;;;23.14;100.00
53546;BME280;39432;51.902;10.844;2023-08-20T06:44:47;100320.44;;;23.16;100.00
53546;BME280;39432;51.902;10.844;2023-08-20T06:47:38;100311.13;;;23.37;100.00
53546;BME280;39432;51.902;10.844;2023-08-20T06:50:28;100310.69;;;22.96;100.00
53546;BME280;39432;51.902;10.844;2023-08-20T06:53:18;100318.28;;;22.73;100.00
53546;BME280;39432;51.902;10.844;2023-08-20T06:56:11;100322.94;;;23.34;100.00
53546;BME280;39432;51.902;10.844;2023-08-20T06:59:01;100302.94;;;23.84;100.00
53546;BME280;39432;51.902;10.844;2023-08-20T07:01:52;100302.13;;;23.84;100.00
53546;BME280;39432;51.902;10.844;2023-08-20T07:04:42;100293.25;;;23.73;100.00
53546;BME280;39432;51.902;10.844;2023-08-20T07:07:32;100274.47;;;24.17;100.00
53546;BME280;39432;51.902;10.844;2023-08-20T07:10:23;100254.84;;;24.34;100.00
53546;BME280;39432;51.902;10.844;2023-08-20T07:13:16;100224.44;;;25.01;100.00
53546;BME280;39432;51.902;10.844;2023-08-20T07:16:06;100218.00;;;24.70;100.00
53546;BME280;39432;51.902;10.844;2023-08-20T07:18:56;100210.34;;;24.59;100.00
53546;BME280;39432;51.902;10.844;2023-08-20T07:21:46;100200.97;;;24.84;100.00
53546;BME280;39432;51.902;10.844;2023-08-20T07:24:36;100188.53;;;24.73;100.00
53546;BME280;39432;51.902;10.844;2023-08-20T07:27:27;100191.47;;;25.06;100.00
53546;BME280;39432;51.902;10.844;2023-08-20T07:30:19;100176.75;;;26.30;100.00
53546;BME280;39432;51.902;10.844;2023-08-20T07:33:10;100177.72;;;26.58;100.00
53546;BME280;39432;51.902;10.844;2023-08-20T07:36:00;100181.19;;;25.52;100.00
53546;BME280;39432;51.902;10.844;2023-08-20T07:38:51;100175.16;;;24.79;100.00
53546;BME280;39432;51.902;10.844;2023-08-20T07:41:42;100177.69;;;25.22;100.00
53546;BME280;39432;51.902;10.844;2023-08-20T07:44:32;100169.41;;;25.59;100.00
53546;BME280;39432;51.902;10.844;2023-08-20T07:47:25;100154.59;;;25.91;100.00
53546;BME280;39432;51.902;10.844;2023-08-20T07:50:16;100166.84;;;25.54;100.00
53546;BME280;39432;51.902;10.844;2023-08-20T07:53:06;100158.97;;;26.99;100.00
53546;BME280;39432;51.902;10.844;2023-08-20T07:55:57;100156.06;;;26.34;100.00
53546;BME280;39432;51.902;10.844;2023-08-20T07:58:47;100150.69;;;28.66;100.00
53546;BME280;39432;51.902;10.844;2023-08-20T08:01:37;100150.16;;;27.81;100.00
53546;BME280;39432;51.902;10.844;2023-08-20T08:04:30;100142.91;;;27.68;100.00
53546;BME280;39432;51.902;10.844;2023-08-20T08:07:20;100140.34;;;28.70;98.34
53546;BME280;39432;51.902;10.844;2023-08-20T08:10:10;100123.75;;;28.33;97.12
53546;BME280;39432;51.902;10.844;2023-08-20T08:13:00;100139.72;;;29.92;93.90
53546;BME280;39432;51.902;10.844;2023-08-20T08:15:51;100140.81;;;29.26;86.91
53546;BME280;39432;51.902;10.844;2023-08-20T08:18:41;100138.16;;;30.41;87.45
53546;BME280;39432;51.902;10.844;2023-08-20T08:21:34;100140.91;;;28.28;94.54
53546;BME280;39432;51.902;10.844;2023-08-20T08:24:24;100136.16;;;27.56;98.07
53546;BME280;39432;51.902;10.844;2023-08-20T08:27:14;100133.91;;;28.69;90.90
53546;BME280;39432;51.902;10.844;2023-08-20T08:30:06;100149.97;;;26.93;100.00
53546;BME280;39432;51.902;10.844;2023-08-20T08:32:58;100139.66;;;25.99;100.00
53546;BME280;39432;51.902;10.844;2023-08-20T08:35:48;100148.25;;;25.82;100.00
53546;BME280;39432;51.902;10.844;2023-08-20T08:38:41;100149.22;;;25.98;100.00
53546;BME280;39432;51.902;10.844;2023-08-20T08:41:33;100152.03;;;25.32;100.00
53546;BME280;39432;51.902;10.844;2023-08-20T08:44:25;100158.91;;;25.56;100.00
53546;BME280;39432;51.902;10.844;2023-08-20T08:47:16;100160.44;;;25.32;100.00
53546;BME280;39432;51.902;10.844;2023-08-20T08:50:08;100168.81;;;25.74;100.00
53546;BME280;39432;51.902;10.844;2023-08-20T08:52:59;100175.19;;;25.41;100.00
53546;BME280;39432;51.902;10.844;2023-08-20T08:55:52;100171.19;;;25.84;100.00
53546;BME280;39432;51.902;10.844;2023-08-20T08:58:42;100169.94;;;26.06;100.00
53546;BME280;39432;51.902;10.844;2023-08-20T09:01:32;100168.97;;;25.57;100.00
53546;BME280;39432;51.902;10.844;2023-08-20T09:04:22;100164.81;;;25.42;100.00
53546;BME280;39432;51.902;10.844;2023-08-20T09:07:14;100169.22;;;25.97;100.00
53546;BME280;39432;51.902;10.844;2023-08-20T09:10:06;100163.34;;;26.47;100.00
53546;BME280;39432;51.902;10.844;2023-08-20T09:12:59;100173.34;;;26.97;100.00
53546;BME280;39432;51.902;10.844;2023-08-20T09:15:50;100165.66;;;26.82;100.00
53546;BME280;39432;51.902;10.844;2023-08-20T09:18:44;100160.75;;;26.67;100.00
53546;BME280;39432;51.902;10.844;2023-08-20T09:21:34;100159.78;;;26.99;100.00
53546;BME280;39432;51.902;10.844;2023-08-20T09:24:26;100154.91;;;26.72;100.00
53546;BME280;39432;51.902;10.844;2023-08-20T09:27:17;100149.78;;;26.62;100.00
53546;BME280;39432;51.902;10.844;2023-08-20T09:30:17;100149.72;;;26.98;100.00
53546;BME280;39432;51.902;10.844;2023-08-20T09:33:11;100150.44;;;26.34;100.00
53546;BME280;39432;51.902;10.844;2023-08-20T09:36:03;100155.84;;;26.76;100.00
53546;BME280;39432;51.902;10.844;2023-08-20T09:38:53;100157.69;;;26.35;100.00
53546;BME280;39432;51.902;10.844;2023-08-20T09:41:44;100156.56;;;26.48;100.00
53546;BME280;39432;51.902;10.844;2023-08-20T09:44:40;100162.94;;;26.98;100.00
53546;BME280;39432;51.902;10.844;2023-08-20T09:47:34;100157.94;;;26.42;100.00
53546;BME280;39432;51.902;10.844;2023-08-20T09:50:27;100158.56;;;26.60;100.00
53546;BME280;39432;51.902;10.844;2023-08-20T09:53:26;100155.38;;;26.62;100.00
53546;BME280;39432;51.902;10.844;2023-08-20T09:56:22;100156.13;;;27.95;100.00
53546;BME280;39432;51.902;10.844;2023-08-20T09:59:16;100157.91;;;26.18;100.00
53546;BME280;39432;51.902;10.844;2023-08-20T10:02:08;100150.44;;;26.10;100.00
53546;BME280;39432;51.902;10.844;2023-08-20T10:05:05;100146.94;;;26.74;100.00
53546;BME280;39432;51.902;10.844;2023-08-20T10:07:56;100145.91;;;26.66;100.00
53546;BME280;39432;51.902;10.844;2023-08-20T10:10:47;100135.63;;;27.23;100.00
53546;BME280;39432;51.902;10.844;2023-08-20T10:13:38;100141.88;;;26.92;100.00
53546;BME280;39432;51.902;10.844;2023-08-20T10:16:29;100142.16;;;27.55;100.00
53546;BME280;39432;51.902;10.844;2023-08-20T10:19:19;100139.72;;;27.53;100.00
53546;BME280;39432;51.902;10.844;2023-08-20T10:22:13;100147.16;;;27.62;100.00
53546;BME280;39432;51.902;10.844;2023-08-20T10:25:06;100135.50;;;26.67;100.00
53546;BME280;39432;51.902;10.844;2023-08-20T10:28:11;100143.69;;;26.47;100.00
53546;BME280;39432;51.902;10.844;2023-08-20T10:31:07;100135.22;;;26.84;100.00
53546;BME280;39432;51.902;10.844;2023-08-20T10:33:58;100136.09;;;27.97;100.00
53546;BME280;39432;51.902;10.844;2023-08-20T10:36:50;100132.16;;;27.70;100.00
53546;BME280;39432;51.902;10.844;2023-08-20T10:39:53;100139.56;;;27.34;100.00
53546;BME280;39432;51.902;10.844;2023-08-20T10:42:44;100133.91;;;28.22;100.00
53546;BME280;39432;51.902;10.844;2023-08-20T10:45:43;100128.50;;;28.80;100.00
53546;BME280;39432;51.902;10.844;2023-08-20T10:48:35;100123.38;;;29.01;100.00
53546;BME280;39432;51.902;10.844;2023-08-20T10:51:27;100130.19;;;28.02;100.00
53546;BME280;39432;51.902;10.844;2023-08-20T10:54:18;100123.66;;;28.45;100.00
53546;BME280;39432;51.902;10.844;2023-08-20T10:57:11;100123.28;;;28.63;100.00
53546;BME280;39432;51.902;10.844;2023-08-20T11:00:03;100118.94;;;27.86;100.00
53546;BME280;39432;51.902;10.844;2023-08-20T11:02:58;100126.81;;;27.52;100.00
53546;BME280;39432;51.902;10.844;2023-08-20T11:05:50;100116.81;;;27.39;100.00
53546;BME280;39432;51.902;10.844;2023-08-20T11:08:41;100111.59;;;27.53;100.00
53546;BME280;39432;51.902;10.844;2023-08-20T11:11:32;100112.75;;;27.52;100.00
53546;BME280;39432;51.902;10.844;2023-08-20T11:14:25;100125.09;;;27.20;100.00
53546;BME280;39432;51.902;10.844;2023-08-20T11:17:15;100116.09;;;27.42;100.00
53546;BME280;39432;51.902;10.844;2023-08-20T11:20:06;100121.59;;;27.67;100.00
53546;BME280;39432;51.902;10.844;2023-08-20T11:22:58;100118.38;;;27.24;100.00
53546;BME280;39432;51.902;10.844;2023-08-20T11:25:48;100120.44;;;27.40;100.00
53546;BME280;39432;51.902;10.844;2023-08-20T11:28:38;100113.19;;;28.61;100.00
53546;BME280;39432;51.902;10.844;2023-08-20T11:31:31;100114.28;;;27.78;100.00
53546;BME280;39432;51.902;10.844;2023-08-20T11:34:22;100106.94;;;28.21;100.00
53546;BME280;39432;51.902;10.844;2023-08-20T11:37:12;100109.75;;;27.73;100.00
53546;BME280;39432;51.902;10.844;2023-08-20T11:40:03;100115.25;;;27.26;100.00
53546;BME280;39432;51.902;10.844;2023-08-20T11:42:57;100097.16;;;28.15;100.00
53546;BME280;39432;51.902;10.844;2023-08-20T11:45:48;100101.41;;;27.93;100.00
53546;BME280;39432;51.902;10.844;2023-08-20T11:48:58;100104.31;;;27.80;100.00
53546;BME280;39432;51.902;10.844;2023-08-20T11:51:48;100105.88;;;27.22;100.00
53546;BME280;39432;51.902;10.844;2023-08-20T11:54:39;100097.44;;;27.50;100.00
53546;BME280;39432;51.902;10.844;2023-08-20T11:57:32;100097.31;;;28.53;100.00
53546;BME280;39432;51.902;10.844;2023-08-20T12:00:26;100101.13;;;28.96;100.00
53546;BME280;39432;51.902;10.844;2023-08-20T12:03:18;100099.16;;;29.39;100.00
53546;BME280;39432;51.902;10.844;2023-08-20T12:06:21;100097.19;;;29.20;100.00
53546;BME280;39432;51.902;10.844;2023-08-20T12:09:19;100088.34;;;30.06;100.00
53546;BME280;39432;51.902;10.844;2023-08-20T12:12:10;100090.78;;;30.08;100.00
53546;BME280;39432;51.902;10.844;2023-08-20T12:15:02;100081.88;;;28.47;100.00
53546;BME280;39432;51.902;10.844;2023-08-20T12:17:59;100087.91;;;29.00;100.00
53546;BME280;39432;51.902;10.844;2023-08-20T12:20:52;100092.31;;;28.82;100.00
53546;BME280;39432;51.902;10.844;2023-08-20T12:23:44;100088.00;;;28.69;100.00
53546;BME280;39432;51.902;10.844;2023-08-20T12:26:34;100073.44;;;28.47;100.00
53546;BME280;39432;51.902;10.844;2023-08-20T12:29:25;100081.50;;;28.49;100.00
53546;BME280;39432;51.902;10.844;2023-08-20T12:32:15;100080.44;;;28.38;100.00
53546;BME280;39432;51.902;10.844;2023-08-20T12:35:06;100081.63;;;28.72;100.00
53546;BME280;39432;51.902;10.844;2023-08-20T12:37:56;100080.34;;;27.71;100.00
53546;BME280;39432;51.902;10.844;2023-08-20T12:40:49;100086.34;;;28.01;100.00
53546;BME280;39432;51.902;10.844;2023-08-20T12:43:39;100091.09;;;27.69;100.00
53546;BME280;39432;51.902;10.844;2023-08-20T12:46:29;100082.34;;;28.18;100.00
53546;BME280;39432;51.902;10.844;2023-08-20T12:49:20;100076.44;;;28.39;100.00
53546;BME280;39432;51.902;10.844;2023-08-20T12:52:10;100084.78;;;27.72;100.00
53546;BME280;39432;51.902;10.844;2023-08-20T12:55:00;100085.72;;;27.76;100.00
53546;BME280;39432;51.902;10.844;2023-08-20T12:57:57;100089.03;;;27.66;100.00
53546;BME280;39432;51.902;10.844;2023-08-20T13:00:48;100081.25;;;28.38;100.00
53546;BME280;39432;51.902;10.844;2023-08-20T13:03:39;100077.78;;;28.80;100.00
53546;BME280;39432;51.902;10.844;2023-08-20T13:06:30;100069.22;;;29.31;100.00
53546;BME280;39432;51.902;10.844;2023-08-20T13:09:20;100077.50;;;28.85;100.00
53546;BME280;39432;51.902;10.844;2023-08-20T13:12:11;100065.25;;;29.78;100.00
53546;BME280;39432;51.902;10.844;2023-08-20T13:15:06;100067.72;;;29.56;100.00
53546;BME280;39432;51.902;10.844;2023-08-20T13:17:58;100066.97;;;28.82;100.00
53546;BME280;39432;51.902;10.844;2023-08-20T13:20:49;100067.19;;;29.51;100.00
53546;BME280;39432;51.902;10.844;2023-08-20T13:23:39;100055.06;;;29.50;100.00
53546;BME280;39432;51.902;10.844;2023-08-20T13:26:31;100071.97;;;29.50;100.00
53546;BME280;39432;51.902;10.844;2023-08-20T13:29:21;100071.72;;;28.27;100.00
53546;BME280;39432;51.902;10.844;2023-08-20T13:32:14;100065.16;;;30.16;100.00
53546;BME280;39432;51.902;10.844;2023-08-20T13:35:05;100064.88;;;29.37;100.00
53546;BME280;39432;51.902;10.844;2023-08-20T13:37:55;100058.63;;;30.12;100.00
53546;BME280;39432;51.902;10.844;2023-08-20T13:40:46;100067.53;;;29.69;100.00
53546;BME280;39432;51.902;10.844;2023-08-20T13:43:36;100061.63;;;29.35;100.00
53546;BME280;39432;51.902;10.844;2023-08-20T13:46:26;100061.84;;;28.68;100.00
53546;BME280;39432;51.902;10.844;2023-08-20T13:49:19;100064.03;;;28.59;100.00
53546;BME280;39432;51.902;10.844;2023-08-20T13:52:09;100064.44;;;28.26;100.00
53546;BME280;39432;51.902;10.844;2023-08-20T13:54:59;100063.38;;;27.83;100.00
53546;BME280;39432;51.902;10.844;2023-08-20T13:57:50;100071.56;;;27.88;100.00
53546;BME280;39432;51.902;10.844;2023-08-20T14:00:40;100058.81;;;28.26;100.00
53546;BME280;39432;51.902;10.844;2023-08-20T14:03:30;100064.91;;;28.12;100.00
53546;BME280;39432;51.902;10.844;2023-08-20T14:06:23;100058.03;;;28.09;100.00
53546;BME280;39432;51.902;10.844;2023-08-20T14:09:14;100054.94;;;28.66;100.00
53546;BME280;39432;51.902;10.844;2023-08-20T14:12:05;100059.59;;;28.77;100.00
53546;BME280;39432;51.902;10.844;2023-08-20T14:14:56;100050.44;;;29.00;100.00
53546;BME280;39432;51.902;10.844;2023-08-20T14:17:46;100044.72;;;29.16;100.00
53546;BME280;39432;51.902;10.844;2023-08-20T14:20:36;100048.06;;;29.21;100.00
53546;BME280;39432;51.902;10.844;2023-08-20T14:23:29;100044.13;;;29.26;100.00
53546;BME280;39432;51.902;10.844;2023-08-20T14:26:19;100043.03;;;29.11;100.00
53546;BME280;39432;51.902;10.844;2023-08-20T14:29:10;100034.56;;;28.92;100.00
53546;BME280;39432;51.902;10.844;2023-08-20T14:32:00;100037.78;;;29.09;100.00
53546;BME280;39432;51.902;10.844;2023-08-20T14:34:50;100033.66;;;28.68;100.00
53546;BME280;39432;51.902;10.844;2023-08-20T14:37:40;100040.59;;;29.09;100.00
53546;BME280;39432;51.902;10.844;2023-08-20T14:40:36;100024.78;;;28.85;100.00
53546;BME280;39432;51.902;10.844;2023-08-20T14:43:27;100033.53;;;28.45;100.00
53546;BME280;39432;51.902;10.844;2023-08-20T14:46:17;100039.03;;;28.38;100.00
53546;BME280;39432;51.902;10.844;2023-08-20T14:49:07;100029.56;;;28.46;100.00